SWA431 KSEA-KLAS
Flight info
| Callsign | SWA431 |
|---|---|
| Flight time | N/A |
| Altitude | 39000 |
| Route | OZWLD1 OZWLD SUMMA LKV BAARB RYANN TQILA COKTL4 |
| Aircraft | B737/M-SDE2E3FGHIRWXY/LB1 |
Departure
| Time | N/A |
|---|---|
| Airport | Seattle–Tacoma International Airport (KSEA) |
Arrival
| Time | 2026-05-01 15:22 |
|---|---|
| Airport | Harry Reid International Airport (KLAS) |
| Time | Latitude | Longitude | Altitude | Speed | Heading |
|---|---|---|---|---|---|
| 2026-05-01 14:11 | 42.49210 | -120.50672 | 39147 ft | 479 kts | 172° |
| 2026-05-01 14:12 | 42.42763 | -120.48668 | 39143 ft | 479 kts | 174° |
| 2026-05-01 14:12 | 42.36252 | -120.46753 | 39142 ft | 478 kts | 174° |
| 2026-05-01 14:13 | 42.29752 | -120.44855 | 39140 ft | 477 kts | 174° |
| 2026-05-01 14:13 | 42.23260 | -120.42920 | 39141 ft | 477 kts | 173° |
| 2026-05-01 14:14 | 42.16774 | -120.40976 | 39187 ft | 478 kts | 173° |
| 2026-05-01 14:14 | 42.10277 | -120.39041 | 39178 ft | 479 kts | 173° |
| 2026-05-01 14:15 | 42.03759 | -120.37108 | 39175 ft | 479 kts | 174° |
| 2026-05-01 14:15 | 41.97288 | -120.35191 | 39167 ft | 479 kts | 174° |
| 2026-05-01 14:16 | 41.90767 | -120.33265 | 39144 ft | 480 kts | 173° |
| 2026-05-01 14:16 | 41.84234 | -120.31339 | 39139 ft | 480 kts | 173° |
| 2026-05-01 14:17 | 41.77697 | -120.29416 | 39127 ft | 481 kts | 173° |
| 2026-05-01 14:17 | 41.71157 | -120.27496 | 39127 ft | 482 kts | 173° |
| 2026-05-01 14:18 | 41.64590 | -120.25573 | 39093 ft | 482 kts | 174° |
| 2026-05-01 14:18 | 41.59152 | -120.23996 | 39108 ft | 479 kts | 173° |
| 2026-05-01 14:19 | 41.51561 | -120.21766 | 39115 ft | 480 kts | 173° |
| 2026-05-01 14:19 | 41.45028 | -120.19831 | 39134 ft | 480 kts | 173° |
| 2026-05-01 14:20 | 41.35220 | -120.17002 | 39124 ft | 480 kts | 173° |
| 2026-05-01 14:21 | 41.28676 | -120.15121 | 39102 ft | 482 kts | 173° |
| 2026-05-01 14:21 | 41.22117 | -120.13230 | 39098 ft | 483 kts | 173° |
| 2026-05-01 14:22 | 41.12332 | -120.10059 | 39119 ft | 487 kts | 167° |
| 2026-05-01 14:22 | 41.05889 | -120.07141 | 39108 ft | 490 kts | 165° |
| 2026-05-01 14:23 | 40.99446 | -120.04155 | 39101 ft | 491 kts | 166° |
| 2026-05-01 14:23 | 40.92968 | -120.01226 | 39103 ft | 492 kts | 166° |
| 2026-05-01 14:24 | 40.86507 | -119.98355 | 39097 ft | 492 kts | 166° |
| 2026-05-01 14:24 | 40.80007 | -119.95484 | 39100 ft | 492 kts | 166° |
| 2026-05-01 14:25 | 40.73512 | -119.92617 | 39098 ft | 491 kts | 166° |
| 2026-05-01 14:25 | 40.67073 | -119.89779 | 39097 ft | 490 kts | 166° |
| 2026-05-01 14:26 | 40.57423 | -119.85562 | 39099 ft | 485 kts | 166° |
| 2026-05-01 14:27 | 40.51016 | -119.82733 | 39106 ft | 484 kts | 166° |
| 2026-05-01 14:27 | 40.44609 | -119.79925 | 39118 ft | 486 kts | 166° |
| 2026-05-01 14:28 | 40.34953 | -119.75707 | 39108 ft | 489 kts | 166° |
| 2026-05-01 14:28 | 40.28495 | -119.72895 | 39110 ft | 490 kts | 166° |
| 2026-05-01 14:29 | 40.25250 | -119.71485 | 39105 ft | 491 kts | 166° |
| 2026-05-01 14:31 | 39.99445 | -119.60312 | 39087 ft | 493 kts | 167° |
| 2026-05-01 14:31 | 39.92937 | -119.57509 | 39093 ft | 492 kts | 167° |
| 2026-05-01 14:32 | 39.86431 | -119.54712 | 39097 ft | 491 kts | 167° |
| 2026-05-01 14:32 | 39.79940 | -119.51928 | 39123 ft | 490 kts | 167° |
| 2026-05-01 14:33 | 39.73487 | -119.49165 | 39116 ft | 491 kts | 167° |
| 2026-05-01 14:33 | 39.66988 | -119.46388 | 39114 ft | 492 kts | 167° |
| 2026-05-01 14:34 | 39.60487 | -119.43618 | 39106 ft | 490 kts | 167° |
| 2026-05-01 14:34 | 39.53995 | -119.40847 | 39112 ft | 491 kts | 167° |
| 2026-05-01 14:35 | 39.47502 | -119.38092 | 39100 ft | 491 kts | 167° |
| 2026-05-01 14:35 | 39.41040 | -119.35354 | 39084 ft | 491 kts | 167° |
| 2026-05-01 14:36 | 39.34542 | -119.32603 | 39093 ft | 491 kts | 167° |
| 2026-05-01 14:37 | 39.14350 | -119.17090 | 39082 ft | 505 kts | 137° |
| 2026-05-01 14:38 | 39.11830 | -119.13928 | 39085 ft | 505 kts | 137° |
| 2026-05-01 14:38 | 39.06769 | -119.07644 | 39081 ft | 505 kts | 138° |
| 2026-05-01 14:39 | 39.01669 | -119.01415 | 39086 ft | 506 kts | 139° |
| 2026-05-01 14:39 | 38.96542 | -118.95207 | 39103 ft | 507 kts | 139° |
| 2026-05-01 14:40 | 38.91396 | -118.88988 | 39061 ft | 508 kts | 139° |
| 2026-05-01 14:40 | 38.86244 | -118.82776 | 39040 ft | 508 kts | 139° |
| 2026-05-01 14:41 | 38.81080 | -118.76557 | 39033 ft | 508 kts | 139° |
| 2026-05-01 14:41 | 38.75958 | -118.70398 | 39040 ft | 508 kts | 139° |
| 2026-05-01 14:42 | 38.70798 | -118.64208 | 39033 ft | 509 kts | 139° |
| 2026-05-01 14:42 | 38.65624 | -118.58016 | 39170 ft | 509 kts | 139° |
| 2026-05-01 14:43 | 38.60439 | -118.51822 | 39175 ft | 510 kts | 139° |
| 2026-05-01 14:43 | 38.55249 | -118.45634 | 39141 ft | 510 kts | 139° |
| 2026-05-01 14:44 | 38.50050 | -118.39450 | 39135 ft | 510 kts | 139° |
| 2026-05-01 14:44 | 38.42252 | -118.30192 | 39087 ft | 510 kts | 139° |
| 2026-05-01 14:45 | 38.34475 | -118.20998 | 39044 ft | 510 kts | 139° |
| 2026-05-01 14:46 | 38.29268 | -118.14860 | 39036 ft | 509 kts | 139° |
| 2026-05-01 14:46 | 38.21464 | -118.05671 | 39065 ft | 510 kts | 139° |
| 2026-05-01 14:47 | 38.16248 | -117.99549 | 39055 ft | 510 kts | 139° |
| 2026-05-01 14:48 | 38.08398 | -117.90358 | 39051 ft | 511 kts | 139° |
| 2026-05-01 14:48 | 38.00583 | -117.81236 | 39041 ft | 511 kts | 140° |
| 2026-05-01 14:49 | 37.90112 | -117.69056 | 39033 ft | 510 kts | 140° |
| 2026-05-01 14:50 | 37.79643 | -117.56929 | 38714 ft | 512 kts | 140° |
| 2026-05-01 14:51 | 37.77048 | -117.53930 | 38446 ft | 510 kts | 140° |
| 2026-05-01 14:51 | 37.71818 | -117.47894 | 37888 ft | 509 kts | 140° |
| 2026-05-01 14:52 | 37.66571 | -117.41852 | 37346 ft | 510 kts | 140° |
| 2026-05-01 14:52 | 37.63943 | -117.38835 | 36645 ft | 510 kts | 140° |
| 2026-05-01 14:52 | 37.58713 | -117.32828 | 35333 ft | 509 kts | 139° |
| 2026-05-01 14:53 | 37.56086 | -117.29814 | 34609 ft | 511 kts | 139° |
| 2026-05-01 14:53 | 37.53480 | -117.26828 | 33821 ft | 514 kts | 139° |
| 2026-05-01 14:53 | 37.50837 | -117.23802 | 33215 ft | 510 kts | 139° |
| 2026-05-01 14:53 | 37.48247 | -117.20840 | 33086 ft | 496 kts | 139° |
| 2026-05-01 14:54 | 37.45616 | -117.18091 | 32764 ft | 489 kts | 146° |
| 2026-05-01 14:54 | 37.42787 | -117.15624 | 32500 ft | 502 kts | 149° |
| 2026-05-01 14:54 | 37.39820 | -117.13198 | 32178 ft | 515 kts | 149° |
| 2026-05-01 14:54 | 37.36807 | -117.10695 | 31817 ft | 518 kts | 148° |
| 2026-05-01 14:55 | 37.33854 | -117.08156 | 31466 ft | 511 kts | 147° |
| 2026-05-01 14:55 | 37.30952 | -117.05618 | 31127 ft | 504 kts | 147° |
| 2026-05-01 14:55 | 37.28084 | -117.03118 | 30816 ft | 500 kts | 147° |
| 2026-05-01 14:55 | 37.25223 | -117.00634 | 30509 ft | 499 kts | 147° |
| 2026-05-01 14:56 | 37.22363 | -116.98159 | 30188 ft | 498 kts | 147° |
| 2026-05-01 14:56 | 37.19543 | -116.95722 | 29839 ft | 497 kts | 147° |
| 2026-05-01 14:56 | 37.16706 | -116.93271 | 29484 ft | 495 kts | 147° |
| 2026-05-01 14:56 | 37.13876 | -116.90827 | 29155 ft | 492 kts | 147° |
| 2026-05-01 14:57 | 37.11063 | -116.88401 | 28857 ft | 489 kts | 147° |
| 2026-05-01 14:57 | 37.05474 | -116.83591 | 28211 ft | 486 kts | 147° |
| 2026-05-01 14:57 | 37.02696 | -116.81202 | 27898 ft | 484 kts | 146° |
| 2026-05-01 14:58 | 36.99920 | -116.78819 | 27585 ft | 482 kts | 146° |
| 2026-05-01 14:58 | 36.97162 | -116.76452 | 27285 ft | 480 kts | 146° |
| 2026-05-01 14:58 | 36.94414 | -116.74095 | 26979 ft | 478 kts | 146° |
| 2026-05-01 14:58 | 36.91678 | -116.71750 | 26678 ft | 476 kts | 146° |
| 2026-05-01 14:59 | 36.88943 | -116.69408 | 26376 ft | 474 kts | 146° |
| 2026-05-01 14:59 | 36.86227 | -116.67085 | 26063 ft | 471 kts | 146° |
| 2026-05-01 14:59 | 36.83536 | -116.64784 | 25753 ft | 466 kts | 146° |
| 2026-05-01 14:59 | 36.80903 | -116.62531 | 25436 ft | 462 kts | 146° |
| 2026-05-01 15:00 | 36.75615 | -116.58025 | 24891 ft | 459 kts | 146° |
| 2026-05-01 15:00 | 36.72969 | -116.55772 | 24612 ft | 459 kts | 146° |
| 2026-05-01 15:00 | 36.70327 | -116.53522 | 24288 ft | 460 kts | 146° |
| 2026-05-01 15:01 | 36.67687 | -116.51276 | 23999 ft | 459 kts | 146° |
| 2026-05-01 15:01 | 36.65074 | -116.49000 | 23706 ft | 457 kts | 141° |
| 2026-05-01 15:01 | 36.62845 | -116.46209 | 23410 ft | 453 kts | 130° |
| 2026-05-01 15:01 | 36.60796 | -116.43246 | 23081 ft | 450 kts | 129° |
| 2026-05-01 15:02 | 36.58804 | -116.40322 | 22768 ft | 447 kts | 129° |
| 2026-05-01 15:02 | 36.58124 | -116.39329 | 22667 ft | 446 kts | 129° |
| 2026-05-01 15:02 | 36.54781 | -116.34509 | 22187 ft | 440 kts | 130° |
| 2026-05-01 15:02 | 36.52770 | -116.31655 | 21885 ft | 436 kts | 130° |
| 2026-05-01 15:03 | 36.50775 | -116.28842 | 21620 ft | 432 kts | 130° |
| 2026-05-01 15:03 | 36.48798 | -116.26058 | 21351 ft | 428 kts | 130° |
| 2026-05-01 15:03 | 36.46831 | -116.23292 | 21102 ft | 426 kts | 130° |
| 2026-05-01 15:03 | 36.44874 | -116.20540 | 20769 ft | 425 kts | 130° |
| 2026-05-01 15:04 | 36.42910 | -116.17780 | 20285 ft | 427 kts | 130° |
| 2026-05-01 15:04 | 36.40962 | -116.15047 | 19804 ft | 418 kts | 130° |
| 2026-05-01 15:04 | 36.39057 | -116.12376 | 19354 ft | 409 kts | 130° |
| 2026-05-01 15:04 | 36.37180 | -116.09745 | 18914 ft | 406 kts | 130° |
| 2026-05-01 15:05 | 36.35304 | -116.07117 | 18473 ft | 407 kts | 130° |
| 2026-05-01 15:05 | 36.33431 | -116.04493 | 17960 ft | 405 kts | 130° |
| 2026-05-01 15:05 | 36.31598 | -116.01929 | 17468 ft | 400 kts | 130° |
| 2026-05-01 15:05 | 36.29766 | -115.99367 | 17035 ft | 393 kts | 130° |
| 2026-05-01 15:06 | 36.27984 | -115.96878 | 16576 ft | 381 kts | 131° |
| 2026-05-01 15:06 | 36.26234 | -115.94436 | 16170 ft | 376 kts | 131° |
| 2026-05-01 15:06 | 36.24522 | -115.92011 | 15798 ft | 371 kts | 129° |
| 2026-05-01 15:06 | 36.22941 | -115.89554 | 15511 ft | 357 kts | 127° |
| 2026-05-01 15:07 | 36.21463 | -115.87169 | 15261 ft | 341 kts | 127° |
| 2026-05-01 15:07 | 36.20043 | -115.84871 | 15014 ft | 333 kts | 127° |
| 2026-05-01 15:07 | 36.18633 | -115.82613 | 14775 ft | 330 kts | 127° |
| 2026-05-01 15:07 | 36.17223 | -115.80372 | 14540 ft | 330 kts | 127° |
| 2026-05-01 15:08 | 36.15809 | -115.78135 | 14294 ft | 330 kts | 127° |
| 2026-05-01 15:08 | 36.14347 | -115.75947 | 14048 ft | 330 kts | 137° |
| 2026-05-01 15:08 | 36.12428 | -115.74428 | 13813 ft | 327 kts | 158° |
| 2026-05-01 15:08 | 36.10316 | -115.73476 | 13545 ft | 326 kts | 163° |
| 2026-05-01 15:09 | 36.08153 | -115.72635 | 13266 ft | 325 kts | 164° |
| 2026-05-01 15:09 | 36.05988 | -115.71811 | 12999 ft | 324 kts | 164° |
| 2026-05-01 15:09 | 36.03840 | -115.70978 | 12742 ft | 322 kts | 163° |
| 2026-05-01 15:09 | 36.01709 | -115.70136 | 12487 ft | 321 kts | 163° |
| 2026-05-01 15:10 | 35.99590 | -115.69286 | 12225 ft | 319 kts | 162° |
| 2026-05-01 15:10 | 35.95400 | -115.67593 | 11744 ft | 314 kts | 162° |
| 2026-05-01 15:10 | 35.93330 | -115.66756 | 11501 ft | 312 kts | 162° |
| 2026-05-01 15:11 | 35.91277 | -115.65921 | 11266 ft | 310 kts | 162° |
| 2026-05-01 15:11 | 35.87205 | -115.64261 | 10786 ft | 307 kts | 162° |
| 2026-05-01 15:11 | 35.85207 | -115.63448 | 10562 ft | 305 kts | 161° |
| 2026-05-01 15:12 | 35.83254 | -115.62460 | 10301 ft | 303 kts | 145° |
| 2026-05-01 15:12 | 35.80470 | -115.58756 | 9856 ft | 289 kts | 127° |
| 2026-05-01 15:12 | 35.79239 | -115.56833 | 9613 ft | 283 kts | 127° |
| 2026-05-01 15:13 | 35.75736 | -115.51308 | 8926 ft | 259 kts | 102° |
| 2026-05-01 15:14 | 35.75405 | -115.47091 | 8575 ft | 242 kts | 88° |
| 2026-05-01 15:14 | 35.75369 | -115.45037 | 8365 ft | 237 kts | 88° |
| 2026-05-01 15:14 | 35.75526 | -115.41054 | 8008 ft | 229 kts | 62° |
| 2026-05-01 15:15 | 35.77557 | -115.38231 | 8005 ft | 224 kts | 39° |
| 2026-05-01 15:15 | 35.79944 | -115.35705 | 7994 ft | 226 kts | 39° |
| 2026-05-01 15:16 | 35.82319 | -115.33158 | 7822 ft | 231 kts | 40° |
| 2026-05-01 15:16 | 35.84724 | -115.30564 | 7305 ft | 227 kts | 40° |
| 2026-05-01 15:17 | 35.87339 | -115.28536 | 6833 ft | 221 kts | 23° |
| 2026-05-01 15:18 | 35.91357 | -115.26341 | 6144 ft | 204 kts | 25° |
| 2026-05-01 15:18 | 35.92636 | -115.25605 | 5848 ft | 201 kts | 25° |
| 2026-05-01 15:19 | 35.95545 | -115.23932 | 5166 ft | 193 kts | 25° |
| 2026-05-01 15:19 | 35.98350 | -115.22319 | 4492 ft | 169 kts | 24° |
| 2026-05-01 15:19 | 35.99372 | -115.21730 | 4263 ft | 158 kts | 24° |
| 2026-05-01 15:20 | 36.01290 | -115.20626 | 3826 ft | 143 kts | 25° |
| 2026-05-01 15:20 | 36.02157 | -115.20126 | 3611 ft | 136 kts | 25° |
| 2026-05-01 15:20 | 36.03027 | -115.19627 | 3404 ft | 139 kts | 24° |
| 2026-05-01 15:21 | 36.03906 | -115.19125 | 3184 ft | 139 kts | 24° |
| 2026-05-01 15:21 | 36.04788 | -115.18610 | 2957 ft | 142 kts | 24° |
| 2026-05-01 15:21 | 36.05712 | -115.18101 | 2715 ft | 147 kts | 26° |
| 2026-05-01 15:21 | 36.06641 | -115.17546 | 2467 ft | 149 kts | 27° |
| 2026-05-01 15:22 | 36.08473 | -115.16503 | 2137 ft | 120 kts | 24° |
| 2026-05-01 15:22 | 36.09027 | -115.16183 | 2121 ft | 59 kts | 25° |
| 2026-05-01 15:22 | 36.09306 | -115.16021 | 2111 ft | 28 kts | 26° |
| 2026-05-01 15:23 | 36.09341 | -115.15883 | 2107 ft | 6 kts | 116° |
| 2026-05-01 15:23 | 36.09323 | -115.15833 | 2105 ft | 6 kts | 116° |
| 2026-05-01 15:23 | 36.09316 | -115.15816 | 2105 ft | 1 kts | 114° |
| 2026-05-01 15:23 | 36.09307 | -115.15793 | 2104 ft | 5 kts | 115° |
| 2026-05-01 15:24 | 36.09285 | -115.15733 | 2102 ft | 10 kts | 115° |
| 2026-05-01 15:24 | 36.09251 | -115.15645 | 2102 ft | 13 kts | 114° |
| 2026-05-01 15:24 | 36.09191 | -115.15539 | 2098 ft | 17 kts | 158° |
| 2026-05-01 15:24 | 36.09082 | -115.15578 | 2099 ft | 17 kts | 205° |
| 2026-05-01 15:25 | 36.08979 | -115.15636 | 2100 ft | 16 kts | 204° |
| 2026-05-01 15:25 | 36.08912 | -115.15675 | 2102 ft | 15 kts | 206° |
| 2026-05-01 15:25 | 36.08817 | -115.15728 | 2103 ft | 15 kts | 203° |
| 2026-05-01 15:25 | 36.08755 | -115.15761 | 2105 ft | 14 kts | 206° |